Time;durP1;ratioP1;P1;durP2;ratioP2;P2;SDS_P1;SDS_P2;PMS_P1;PMS_P2;Temp;Humidity;BMP_temperature;BMP_pressure;BME280_temperature;BME280_humidity;BME280_pressure;Samples;Min_cycle;Max_cycle;Signal;HPM_P1;HPM_P2
2022/10/23 00:01:17;;;;;;;56.03;7.25;;;;;;;16.32;74.75;98572.12;5277476;27;20049;-79
2022/10/23 00:03:45;;;;;;;42.85;6.78;;;;;;;16.34;74.61;98574.63;5259111;27;20178;-79
2022/10/23 00:06:13;;;;;;;25.33;5.90;;;;;;;16.12;74.92;98578.44;5278111;27;20057;-79
2022/10/23 00:08:40;;;;;;;14.30;5.78;;;;;;;15.63;77.16;98582.97;5277683;27;20083;-79
2022/10/23 00:11:10;;;;;;;16.48;5.90;;;;;;;15.17;79.29;98576.75;5258931;27;20042;-79
2022/10/23 00:13:37;;;;;;;17.45;5.90;;;;;;;15.00;80.30;98577.66;5277886;27;20080;-79
2022/10/23 00:16:05;;;;;;;68.45;8.30;;;;;;;14.76;82.39;98574.53;5278042;27;20061;-79
2022/10/23 00:18:32;;;;;;;36.53;7.05;;;;;;;15.09;81.07;98581.50;5278312;27;20045;-79
2022/10/23 00:21:00;;;;;;;38.78;7.72;;;;;;;15.45;79.66;98576.97;5277768;27;20041;-79
2022/10/23 00:23:26;;;;;;;85.35;9.90;;;;;;;15.30;79.77;98573.41;5278180;27;20061;-79
2022/10/23 00:25:53;;;;;;;63.90;8.38;;;;;;;15.65;78.27;98582.87;5277918;27;20061;-79
2022/10/23 00:28:20;;;;;;;47.53;8.48;;;;;;;16.10;75.62;98582.91;5277647;27;20107;-79
2022/10/23 00:30:47;;;;;;;34.30;7.60;;;;;;;16.23;75.93;98575.25;5277998;27;20042;-79
2022/10/23 00:33:14;;;;;;;61.83;7.85;;;;;;;16.21;75.95;98577.09;5278024;27;20057;-79
2022/10/23 00:35:41;;;;;;;31.90;6.32;;;;;;;15.78;78.02;98576.91;5277541;27;20099;-79
2022/10/23 00:38:09;;;;;;;62.42;7.00;;;;;;;16.08;76.40;98573.53;5278219;27;20049;-79
2022/10/23 00:40:38;;;;;;;78.82;8.80;;;;;;;15.64;78.09;98571.62;5277913;27;20053;-79
2022/10/23 00:43:06;;;;;;;109.37;9.63;;;;;;;16.28;75.37;98577.59;5258459;27;20081;-79
2022/10/23 00:45:33;;;;;;;66.97;9.07;;;;;;;15.64;77.60;98574.25;5277986;27;20054;-79
2022/10/23 00:48:01;;;;;;;12.48;6.12;;;;;;;15.70;77.20;98570.44;5278017;27;20059;-79
2022/10/23 00:50:30;;;;;;;11.60;5.72;;;;;;;16.34;75.06;98570.25;5258339;27;20049;-79
2022/10/23 00:53:00;;;;;;;12.48;5.65;;;;;;;16.49;74.21;98571.16;5278021;27;20652;-79
2022/10/23 00:55:27;;;;;;;13.52;5.90;;;;;;;16.61;74.38;98574.78;5277852;27;20070;-79
2022/10/23 00:57:55;;;;;;;13.50;5.65;;;;;;;16.67;73.80;98570.03;5278066;27;20064;-79
2022/10/23 01:00:24;;;;;;;12.90;6.12;;;;;;;16.94;74.12;98567.59;5277997;27;20050;-79
2022/10/23 01:02:52;;;;;;;13.30;5.50;;;;;;;16.79;75.00;98563.28;5277383;27;20065;-79
2022/10/23 01:05:23;;;;;;;12.68;6.15;;;;;;;17.05;73.53;98570.41;5258670;27;20057;-79
2022/10/23 01:07:58;;;;;;;10.15;5.05;;;;;;;17.30;71.94;98574.09;5258785;27;20472;-79
2022/10/23 01:10:39;;;;;;;11.38;5.20;;;;;;;17.05;72.80;98575.63;5258311;27;20049;-80
2022/10/23 01:13:33;;;;;;;12.18;5.30;;;;;;;16.69;74.04;98570.84;5258819;27;20066;-80
2022/10/23 01:16:20;;;;;;;14.87;5.93;;;;;;;16.79;72.78;98581.53;5277959;27;20076;-79
2022/10/23 01:18:55;;;;;;;13.62;5.97;;;;;;;16.15;75.17;98570.47;5277854;27;20061;-79
2022/10/23 01:21:57;;;;;;;13.07;5.25;;;;;;;16.26;74.64;98572.44;5277996;27;20050;-79
2022/10/23 01:25:01;;;;;;;13.40;5.18;;;;;;;15.66;77.39;98584.56;5257938;27;20423;-79
2022/10/23 01:27:41;;;;;;;13.40;5.93;;;;;;;15.67;78.72;98583.63;5277986;27;20111;-79
2022/10/23 01:30:11;;;;;;;12.10;5.57;;;;;;;15.18;81.04;98587.06;5258738;27;20117;-79
2022/10/23 01:32:50;;;;;;;29.25;7.28;;;;;;;15.70;78.35;98589.50;5258404;27;20322;-79
2022/10/23 01:35:31;;;;;;;50.38;6.43;;;;;;;15.32;79.83;98586.34;5258628;27;20065;-79
2022/10/23 01:38:16;;;;;;;100.00;8.25;;;;;;;14.64;81.96;98590.75;5277647;27;20432;-79
2022/10/23 01:40:48;;;;;;;64.65;7.45;;;;;;;14.60;82.79;98589.25;5277967;27;20053;-79
2022/10/23 01:43:28;;;;;;;109.07;8.88;;;;;;;14.52;82.38;98586.19;5258487;27;20049;-79
2022/10/23 01:46:01;;;;;;;92.00;8.93;;;;;;;14.54;83.18;98581.75;5258016;27;20062;-79
2022/10/23 01:48:29;;;;;;;134.87;10.40;;;;;;;14.54;82.54;98581.75;5278034;27;20072;-79
2022/10/23 01:50:58;;;;;;;70.82;8.27;;;;;;;14.80;81.36;98583.03;5258508;27;20053;-79
2022/10/23 01:53:29;;;;;;;49.22;6.85;;;;;;;15.42;77.81;98587.53;5277376;27;20049;-78
2022/10/23 01:55:58;;;;;;;17.65;6.50;;;;;;;15.91;75.85;98588.31;5277741;27;20065;-79
2022/10/23 01:58:25;;;;;;;12.05;5.95;;;;;;;16.45;73.58;98588.69;5277970;27;20062;-79
2022/10/23 02:00:56;;;;;;;12.73;6.20;;;;;;;16.02;75.86;98582.50;5277134;26;20052;-79
2022/10/23 02:03:23;;;;;;;12.75;5.90;;;;;;;16.09;75.22;98581.25;5258740;27;20106;-79
2022/10/23 02:05:50;;;;;;;12.37;5.65;;;;;;;16.05;75.37;98582.31;5277381;27;20425;-80
2022/10/23 02:08:17;;;;;;;11.75;5.50;;;;;;;16.23;74.76;98584.81;5258554;27;20065;-80
2022/10/23 02:11:08;;;;;;;12.70;5.47;;;;;;;16.87;73.67;98588.91;5277837;27;20418;-80
2022/10/23 02:14:02;;;;;;;12.45;4.70;;;;;;;17.64;69.59;98583.28;5242865;27;20042;-79
2022/10/23 02:16:36;;;;;;;12.88;5.00;;;;;;;17.58;69.69;98586.28;5277798;27;20066;-79
2022/10/23 02:19:30;;;;;;;12.07;5.03;;;;;;;16.53;73.69;98592.63;5258784;27;20062;-79
2022/10/23 02:22:07;;;;;;;11.27;4.87;;;;;;;17.01;72.77;98597.59;5277358;27;20052;-79
2022/10/23 02:24:57;;;;;;;11.93;4.97;;;;;;;16.89;73.29;98595.69;5258465;27;20467;-79
2022/10/23 02:27:41;;;;;;;12.68;4.53;;;;;;;16.62;75.02;98594.72;5258205;27;20060;-79
2022/10/23 02:30:10;;;;;;;10.30;4.15;;;;;;;16.62;75.50;98582.53;5258546;27;20062;-79
2022/10/23 02:32:43;;;;;;;10.63;4.68;;;;;;;16.95;72.46;98590.13;5258538;27;20058;-79
2022/10/23 02:35:11;;;;;;;10.57;4.15;;;;;;;17.87;67.86;98600.97;5258085;27;20049;-79
2022/10/23 02:37:38;;;;;;;10.25;4.28;;;;;;;17.29;69.29;98596.75;5258497;27;20084;-79
2022/10/23 02:40:08;;;;;;;9.65;4.55;;;;;;;17.15;69.84;98601.13;5277586;27;20072;-79
2022/10/23 02:42:42;;;;;;;9.10;4.05;;;;;;;17.26;69.45;98599.53;5257988;27;20058;-79
2022/10/23 02:45:27;;;;;;;9.82;4.37;;;;;;;16.83;69.71;98598.69;5240589;27;20053;-79
2022/10/23 02:48:32;;;;;;;12.32;5.20;;;;;;;18.08;64.36;98590.94;5277371;27;20079;-79
2022/10/23 02:51:08;;;;;;;15.65;4.28;;;;;;;18.03;62.77;98593.00;5229444;27;20069;-79
2022/10/23 02:53:48;;;;;;;276.63;11.57;;;;;;;17.41;64.40;98589.09;5258604;27;20054;-79
2022/10/23 02:56:19;;;;;;;8.98;3.70;;;;;;;16.81;66.42;98590.13;5257770;27;20049;-79
2022/10/23 02:58:55;;;;;;;8.10;3.67;;;;;;;16.43;67.87;98587.12;5277710;27;20432;-79
2022/10/23 03:01:28;;;;;;;10.30;3.90;;;;;;;16.94;66.62;98598.03;5277288;26;20054;-79
2022/10/23 03:04:00;;;;;;;9.45;3.92;;;;;;;17.95;62.64;98587.41;5257430;26;20052;-79
2022/10/23 03:06:26;;;;;;;8.32;3.55;;;;;;;18.09;62.67;98590.00;5258025;26;20336;-80
2022/10/23 03:08:58;;;;;;;8.43;3.70;;;;;;;17.78;64.43;98592.88;5276966;27;20491;-80
2022/10/23 03:11:25;;;;;;;10.02;3.50;;;;;;;18.13;64.07;98596.69;5258268;27;20321;-80
2022/10/23 03:13:52;;;;;;;7.37;3.17;;;;;;;18.16;64.37;98591.25;5277480;27;20049;-79
2022/10/23 03:16:19;;;;;;;8.50;3.40;;;;;;;17.89;65.16;98593.88;5276979;27;20045;-79
2022/10/23 03:18:46;;;;;;;9.80;3.40;;;;;;;17.78;65.52;98605.94;5258448;27;20066;-79
2022/10/23 03:21:13;;;;;;;8.18;3.62;;;;;;;18.11;63.81;98598.56;5277404;27;20061;-79
2022/10/23 03:23:39;;;;;;;10.63;4.40;;;;;;;17.60;65.19;98602.66;5277021;27;20064;-79
2022/10/23 03:26:07;;;;;;;19.67;4.50;;;;;;;18.46;60.83;98603.25;5277241;27;20049;-79
2022/10/23 03:28:34;;;;;;;12.48;4.40;;;;;;;18.33;60.27;98595.38;5277411;27;20438;-79
2022/10/23 03:31:02;;;;;;;127.93;8.45;;;;;;;18.01;60.61;98602.69;5276860;27;20438;-79
2022/10/23 03:33:29;;;;;;;39.92;4.50;;;;;;;17.40;61.26;98603.91;5277317;27;20046;-79
2022/10/23 03:35:56;;;;;;;89.20;7.25;;;;;;;17.78;58.57;98601.56;5277190;27;20389;-79
2022/10/23 03:38:23;;;;;;;45.75;5.32;;;;;;;17.48;59.00;98600.84;5276951;27;20072;-79
2022/10/23 03:40:50;;;;;;;82.65;6.45;;;;;;;17.25;60.04;98603.09;5277235;27;20064;-79
2022/10/23 03:43:17;;;;;;;75.87;5.55;;;;;;;17.02;61.23;98604.47;5277359;27;20063;-79
2022/10/23 03:45:44;;;;;;;29.42;4.00;;;;;;;17.09;60.17;98612.75;5276849;27;20082;-79
2022/10/23 03:48:11;;;;;;;43.53;4.22;;;;;;;16.91;59.75;98604.28;5277282;27;20072;-79
2022/10/23 03:50:38;;;;;;;36.22;4.65;;;;;;;16.16;62.51;98602.53;5277235;27;20072;-79
2022/10/23 03:53:05;;;;;;;42.35;4.30;;;;;;;15.86;64.06;98598.16;5276942;27;20053;-79
2022/10/23 03:55:31;;;;;;;48.80;4.72;;;;;;;15.97;63.17;98594.94;5276998;27;20049;-79
2022/10/23 03:57:58;;;;;;;60.72;5.72;;;;;;;15.94;62.79;98596.88;5276804;27;20058;-79
2022/10/23 04:00:25;;;;;;;48.10;4.75;;;;;;;15.05;65.69;98593.84;5276727;27;20119;-79
2022/10/23 04:02:52;;;;;;;82.57;5.90;;;;;;;15.06;65.98;98595.50;5277146;27;20680;-79
2022/10/23 04:05:19;;;;;;;132.37;7.65;;;;;;;15.36;64.91;98600.03;5276411;27;20050;-79
2022/10/23 04:07:46;;;;;;;74.57;5.03;;;;;;;16.01;62.14;98604.25;5277994;27;20058;-79
2022/10/23 04:10:13;;;;;;;76.97;5.10;;;;;;;16.23;60.11;98610.84;5278130;27;20067;-79
2022/10/23 04:12:40;;;;;;;15.95;3.60;;;;;;;15.65;61.47;98601.94;5277869;27;20049;-79
2022/10/23 04:15:07;;;;;;;33.67;4.75;;;;;;;15.83;61.46;98607.88;5258874;26;20069;-79
2022/10/23 04:17:34;;;;;;;53.83;5.35;;;;;;;15.04;65.15;98607.75;5278142;27;20062;-79
2022/10/23 04:20:01;;;;;;;60.55;6.22;;;;;;;14.87;66.47;98607.75;5277711;27;20071;-79
2022/10/23 04:22:28;;;;;;;34.72;4.93;;;;;;;14.39;69.42;98619.69;5278156;27;20063;-79
2022/10/23 04:24:54;;;;;;;;;;;;;;;13.83;73.08;98621.47;5278317;27;20050;-79
2022/10/23 04:27:21;;;;;;;14.63;3.25;;;;;;;13.35;76.69;98621.97;5277914;27;19989;-79
2022/10/23 04:29:48;;;;;;;19.15;4.40;;;;;;;13.41;77.52;98623.44;5277944;27;20409;-79
2022/10/23 04:32:16;;;;;;;16.67;3.80;;;;;;;12.74;80.62;98622.00;5278163;27;20377;-79
2022/10/23 04:34:43;;;;;;;;;;;;;;;12.42;82.85;98615.56;5277954;27;20407;-79
2022/10/23 04:37:10;;;;;;;21.90;3.65;;;;;;;12.80;80.59;98624.34;5278177;27;20001;-79
2022/10/23 04:39:36;;;;;;;;;;;;;;;12.85;80.97;98627.56;5259180;27;20065;-79
2022/10/23 04:42:03;;;;;;;20.73;3.28;;;;;;;13.05;80.88;98631.88;5277727;27;19957;-79
2022/10/23 04:44:30;;;;;;;18.85;3.17;;;;;;;13.21;79.87;98630.34;5278021;27;20057;-79
2022/10/23 04:46:57;;;;;;;19.23;3.20;;;;;;;13.31;79.26;98628.19;5278023;27;20498;-79
2022/10/23 04:49:24;;;;;;;12.07;3.00;;;;;;;13.51;78.04;98629.91;5277598;27;20057;-79
2022/10/23 04:51:51;;;;;;;17.98;3.00;;;;;;;13.26;77.91;98627.56;5277942;27;20054;-79
2022/10/23 04:54:17;;;;;;;12.18;2.78;;;;;;;13.49;77.28;98626.50;5277621;27;20050;-79
2022/10/23 04:56:44;;;;;;;17.17;3.17;;;;;;;13.64;75.99;98623.25;5277998;27;20065;-79
2022/10/23 04:59:11;;;;;;;17.23;3.10;;;;;;;13.58;76.24;98624.34;5278107;27;20071;-79
2022/10/23 05:01:38;;;;;;;25.00;3.50;;;;;;;13.48;77.09;98617.06;5277649;27;20058;-79
2022/10/23 05:04:05;;;;;;;27.48;3.55;;;;;;;13.73;76.88;98620.22;5278046;27;20423;-79
2022/10/23 05:06:32;;;;;;;21.52;3.10;;;;;;;14.18;74.57;98619.81;5277679;27;20065;-79
2022/10/23 05:08:59;;;;;;;16.95;3.03;;;;;;;14.38;73.67;98616.25;5277559;27;20057;-79
2022/10/23 05:11:26;;;;;;;59.97;5.47;;;;;;;13.90;76.16;98615.06;5277818;27;20064;-79
2022/10/23 05:13:53;;;;;;;22.20;3.87;;;;;;;13.71;76.73;98613.41;5278108;27;20450;-79
2022/10/23 05:17:01;;;;;;;24.25;3.50;;;;;;;13.56;77.78;98615.81;5277468;27;20404;-79
2022/10/23 05:19:32;;;;;;;110.32;5.97;;;;;;;14.04;76.76;98614.44;5206984;27;20080;-79
2022/10/23 05:21:59;;;;;;;123.75;7.00;;;;;;;13.79;78.09;98613.91;5277968;27;20059;-79
2022/10/23 05:24:26;;;;;;;101.97;7.47;;;;;;;14.66;77.09;98610.53;5258151;27;20049;-79
2022/10/23 05:26:53;;;;;;;56.20;4.68;;;;;;;15.81;70.64;98610.56;5277903;27;20072;-79
2022/10/23 05:29:20;;;;;;;61.53;4.82;;;;;;;15.30;72.71;98599.41;5277433;27;20053;-79
2022/10/23 05:31:53;;;;;;;160.80;7.55;;;;;;;15.67;70.24;98600.06;5277882;27;20052;-79
2022/10/23 05:34:21;;;;;;;125.95;6.97;;;;;;;16.30;67.62;98602.62;5258767;27;20060;-79
2022/10/23 05:36:48;;;;;;;131.30;7.25;;;;;;;16.30;66.20;98596.56;5258386;26;20061;-79
2022/10/23 05:39:15;;;;;;;148.07;7.30;;;;;;;16.22;65.35;98603.97;5278107;26;20058;-79
2022/10/23 05:41:42;;;;;;;151.82;7.37;;;;;;;16.16;64.79;98608.63;5277872;27;20049;-79
2022/10/23 05:44:09;;;;;;;94.22;6.20;;;;;;;15.71;67.60;98611.97;5277346;27;20301;-79
2022/10/23 05:46:40;;;;;;;86.95;5.40;;;;;;;16.12;65.23;98612.28;5277874;27;20057;-79
2022/10/23 05:49:07;;;;;;;76.45;4.78;;;;;;;16.05;65.57;98613.56;5277708;27;20057;-79
2022/10/23 05:51:38;;;;;;;39.65;3.90;;;;;;;16.20;64.33;98606.66;5277356;27;20091;-79
2022/10/23 05:54:09;;;;;;;34.30;3.50;;;;;;;16.25;63.33;98601.19;5277751;27;20046;-79
2022/10/23 05:56:40;;;;;;;18.00;2.90;;;;;;;16.33;62.86;98606.81;5258587;27;20066;-79
2022/10/23 05:59:07;;;;;;;13.38;2.70;;;;;;;15.84;64.65;98610.41;5277547;27;20057;-79
2022/10/23 06:01:35;;;;;;;22.37;3.05;;;;;;;15.21;66.94;98607.72;5277781;27;20383;-79
2022/10/23 06:04:03;;;;;;;13.88;2.80;;;;;;;14.70;70.34;98609.47;5277901;27;20112;-79
2022/10/23 06:06:30;;;;;;;8.60;2.67;;;;;;;14.85;70.57;98613.03;5277211;27;20069;-79
2022/10/23 06:08:57;;;;;;;7.18;2.90;;;;;;;15.88;66.99;98622.31;5277720;27;20057;-79
2022/10/23 06:11:24;;;;;;;7.37;2.58;;;;;;;16.52;67.67;98617.84;5277354;27;20102;-79
2022/10/23 06:13:51;;;;;;;4.18;2.08;;;;;;;17.44;62.93;98625.41;5277838;27;20103;-79
2022/10/23 06:16:21;;;;;;;5.45;1.98;;;;;;;18.04;61.78;98615.53;5258338;27;20184;-79
2022/10/23 06:18:48;;;;;;;3.33;1.70;;;;;;;18.85;58.76;98622.50;5277534;27;20114;-79
2022/10/23 06:21:15;;;;;;;3.55;1.87;;;;;;;19.26;56.20;98625.75;5277758;27;20053;-79
2022/10/23 06:23:43;;;;;;;4.43;1.70;;;;;;;19.67;55.61;98627.25;5277873;27;20050;-79
2022/10/23 06:26:11;;;;;;;3.75;1.90;;;;;;;20.11;53.41;98636.37;5277193;27;20073;-80
2022/10/23 06:28:38;;;;;;;4.62;2.00;;;;;;;19.86;55.26;98634.66;5277689;27;20061;-79
2022/10/23 06:31:06;;;;;;;4.40;1.92;;;;;;;20.44;53.10;98635.72;5277575;27;20071;-79
2022/10/23 06:33:33;;;;;;;4.35;1.77;;;;;;;21.11;51.56;98642.94;5277328;27;20046;-80
2022/10/23 06:36:01;;;;;;;3.37;1.85;;;;;;;21.40;51.23;98644.19;5277683;27;20072;-79
2022/10/23 06:38:28;;;;;;;3.80;1.90;;;;;;;21.67;50.39;98644.63;5277691;27;20057;-79
2022/10/23 06:40:55;;;;;;;3.45;1.70;;;;;;;22.01;50.11;98643.75;5277147;27;20063;-80
2022/10/23 06:43:22;;;;;;;4.45;1.92;;;;;;;21.77;50.47;98650.00;5277769;27;20049;-80
2022/10/23 06:45:49;;;;;;;2.53;1.50;;;;;;;22.11;50.06;98650.81;5277508;27;20058;-80
2022/10/23 06:48:16;;;;;;;2.85;1.42;;;;;;;22.42;49.21;98648.31;5277424;27;20122;-80
2022/10/23 06:50:43;;;;;;;4.03;1.60;;;;;;;23.28;47.40;98653.38;5258229;27;20057;-80
2022/10/23 06:53:11;;;;;;;2.75;1.42;;;;;;;23.85;46.51;98643.25;5277657;27;20057;-80
2022/10/23 06:55:41;;;;;;;3.22;1.67;;;;;;;24.33;44.91;98661.81;5277037;27;20158;-80
2022/10/23 06:58:09;;;;;;;2.40;1.50;;;;;;;24.81;44.30;98650.44;5258940;27;20064;-79
2022/10/23 07:00:37;;;;;;;2.22;1.37;;;;;;;25.41;42.75;98663.38;5257913;27;20050;-80
2022/10/23 07:03:05;;;;;;;2.83;1.55;;;;;;;24.76;44.41;98663.22;5277665;27;20042;-80
2022/10/23 07:05:31;;;;;;;3.83;1.73;;;;;;;24.60;45.21;98663.78;5277190;27;20116;-80
2022/10/23 07:07:58;;;;;;;3.35;1.73;;;;;;;26.03;42.64;98664.53;5277251;27;20075;-80
2022/10/23 07:10:25;;;;;;;4.53;1.92;;;;;;;27.04;41.17;98660.72;5277357;27;20053;-80
2022/10/23 07:12:53;;;;;;;4.12;1.80;;;;;;;28.01;39.32;98668.38;5277531;27;20456;-80
2022/10/23 07:15:20;;;;;;;3.20;1.70;;;;;;;27.87;39.11;98661.06;5276950;27;20076;-80
2022/10/23 07:17:46;;;;;;;4.30;2.00;;;;;;;27.69;39.27;98663.78;5277584;27;20072;-80
2022/10/23 07:20:13;;;;;;;5.25;1.90;;;;;;;28.14;38.56;98657.31;5277391;27;20057;-80
2022/10/23 07:22:40;;;;;;;4.00;1.90;;;;;;;27.56;39.81;98663.38;5277132;27;20046;-80
2022/10/23 07:25:08;;;;;;;4.35;1.85;;;;;;;27.29;40.44;98662.53;5277265;27;20061;-78
2022/10/23 07:27:36;;;;;;;3.75;1.92;;;;;;;26.25;43.04;98664.94;5277555;27;20448;-78
2022/10/23 07:30:04;;;;;;;4.30;2.10;;;;;;;27.82;39.57;98658.84;5276767;27;20395;-78
2022/10/23 07:32:30;;;;;;;3.37;2.00;;;;;;;27.92;39.91;98659.56;5277775;27;20056;-78
2022/10/23 07:34:57;;;;;;;3.40;2.00;;;;;;;28.90;38.24;98669.56;5277284;27;20065;-78
2022/10/23 07:37:24;;;;;;;2.90;1.80;;;;;;;28.91;37.98;98666.72;5277147;27;20110;-78
2022/10/23 07:39:51;;;;;;;4.87;2.10;;;;;;;29.45;36.84;98664.31;5277179;27;20054;-78
2022/10/23 07:42:18;;;;;;;3.45;1.80;;;;;;;28.76;37.89;98655.91;5277993;27;20108;-78
2022/10/23 07:44:45;;;;;;;3.10;1.80;;;;;;;29.34;37.13;98662.00;5277960;27;20073;-78
2022/10/23 07:47:12;;;;;;;3.03;1.60;;;;;;;30.00;35.50;98657.34;5278319;27;20400;-78
2022/10/23 07:49:39;;;;;;;2.95;1.65;;;;;;;30.92;34.44;98658.22;5277895;27;20053;-78
2022/10/23 07:52:06;;;;;;;4.05;1.60;;;;;;;31.32;33.68;98660.53;5278294;27;20049;-78
2022/10/23 07:54:33;;;;;;;3.08;1.80;;;;;;;31.63;33.47;98662.19;5278157;27;20091;-78
2022/10/23 07:56:59;;;;;;;3.67;1.80;;;;;;;32.30;32.30;98670.03;5258662;27;20062;-78
2022/10/23 07:59:26;;;;;;;3.17;1.80;;;;;;;32.40;32.17;98667.06;5278359;27;20050;-78
2022/10/23 08:01:56;;;;;;;3.90;1.70;;;;;;;31.81;32.94;98665.34;5278235;27;20069;-78
2022/10/23 08:04:24;;;;;;;3.60;1.75;;;;;;;31.92;33.21;98662.19;5277706;27;20554;-78
2022/10/23 08:06:51;;;;;;;4.35;1.80;;;;;;;30.17;35.14;98658.91;5278104;26;20061;-78
2022/10/23 08:09:18;;;;;;;4.43;1.85;;;;;;;29.07;37.52;98647.31;5278152;27;20049;-78
2022/10/23 08:11:44;;;;;;;4.25;1.65;;;;;;;28.68;39.71;98644.47;5277703;27;20049;-78
2022/10/23 08:14:11;;;;;;;3.17;1.70;;;;;;;26.35;44.23;98648.16;5258869;27;20080;-78
2022/10/23 08:16:39;;;;;;;3.08;1.80;;;;;;;28.08;41.63;98647.34;5278202;27;20537;-78
2022/10/23 08:19:06;;;;;;;5.57;2.10;;;;;;;28.56;41.00;98659.06;5277886;27;20115;-78
2022/10/23 08:21:33;;;;;;;3.42;1.87;;;;;;;28.19;42.56;98650.53;5258800;27;20046;-78
2022/10/23 08:24:00;;;;;;;3.35;1.83;;;;;;;28.32;42.51;98654.56;5278175;27;20053;-78
2022/10/23 08:26:30;;;;;;;4.30;2.40;;;;;;;28.12;43.81;98656.66;5277780;27;20053;-78
2022/10/23 08:28:58;;;;;;;5.05;2.87;;;;;;;28.11;43.05;98657.63;5278188;27;20060;-78
2022/10/23 08:31:25;;;;;;;3.67;2.08;;;;;;;28.87;42.00;98660.06;5277900;27;20054;-78
2022/10/23 08:33:52;;;;;;;6.22;2.62;;;;;;;27.27;43.71;98655.75;5277775;27;20423;-78
2022/10/23 08:36:21;;;;;;;3.42;2.10;;;;;;;28.22;43.90;98657.34;5277855;27;20072;-78
2022/10/23 08:38:49;;;;;;;5.15;2.17;;;;;;;28.24;42.48;98655.34;5277948;27;20396;-78
2022/10/23 08:41:43;;;;;;;4.75;2.30;;;;;;;26.51;46.21;98654.50;5278102;27;20041;-78
2022/10/23 08:44:23;;;;;;;2.97;1.52;;;;;;;28.09;43.49;98652.50;5277324;27;20057;-78
2022/10/23 08:47:04;;;;;;;4.97;1.50;;;;;;;28.76;42.89;98658.56;5258660;27;20061;-78
2022/10/23 08:49:34;;;;;;;3.72;1.80;;;;;;;28.25;44.32;98665.78;5258972;27;20045;-78
2022/10/23 08:52:10;;;;;;;2.80;1.50;;;;;;;27.80;45.59;98666.16;5278025;27;20106;-78
2022/10/23 08:55:02;;;;;;;3.22;1.67;;;;;;;27.33;45.27;98657.78;5258792;27;20440;-78
2022/10/23 08:57:35;;;;;;;5.10;1.45;;;;;;;27.36;45.31;98654.81;5278193;27;20110;-78
2022/10/23 09:00:13;;;;;;;4.03;1.50;;;;;;;28.01;44.03;98656.94;5277871;27;20089;-78
2022/10/23 09:02:48;;;;;;;3.05;1.50;;;;;;;27.21;45.94;98643.13;5278134;27;20060;-78
2022/10/23 09:05:41;;;;;;;2.72;1.50;;;;;;;27.67;45.14;98645.41;5258435;26;20065;-78
2022/10/23 09:08:26;;;;;;;4.57;1.65;;;;;;;27.20;46.25;98641.47;5277823;27;20056;-78
2022/10/23 09:11:25;;;;;;;4.18;1.40;;;;;;;27.19;45.41;98642.44;5277963;27;20049;-78
2022/10/23 09:14:23;;;;;;;2.75;1.10;;;;;;;26.40;47.16;98640.66;5277808;27;20087;-78
2022/10/23 09:16:51;;;;;;;;;;;;;;;25.76;48.29;98639.78;5267374;27;20062;-77
2022/10/23 09:19:26;;;;;;;3.85;1.73;;;;;;;26.34;47.87;98646.50;5278014;27;19968;-77
2022/10/23 09:21:53;;;;;;;5.10;2.25;;;;;;;26.03;48.35;98643.38;5277449;27;20054;-78
2022/10/23 09:24:22;;;;;;;3.92;1.60;;;;;;;26.13;48.62;98642.34;5277910;27;20045;-78
2022/10/23 09:26:51;;;;;;;2.33;1.27;;;;;;;26.70;46.75;98640.25;5277956;27;20061;-78
2022/10/23 09:29:22;;;;;;;1.23;0.90;;;;;;;27.39;45.81;98649.19;5277639;27;20058;-78
2022/10/23 09:31:55;;;;;;;0.60;0.57;;;;;;;26.91;47.25;98644.41;5277951;27;20133;-77
2022/10/23 09:34:25;;;;;;;1.70;0.90;;;;;;;25.94;48.14;98635.34;5258682;27;20041;-77
2022/10/23 09:37:00;;;;;;;0.82;0.75;;;;;;;25.51;49.08;98633.31;5277678;27;20064;-78
2022/10/23 09:39:32;;;;;;;2.25;1.20;;;;;;;25.46;49.75;98637.37;5278199;27;20077;-78
2022/10/23 09:42:01;;;;;;;1.87;1.20;;;;;;;24.52;51.04;98629.34;5258243;27;20398;-78
2022/10/23 09:44:30;;;;;;;1.83;1.10;;;;;;;24.78;51.20;98626.97;5277834;27;20046;-78
2022/10/23 09:47:09;;;;;;;1.65;1.00;;;;;;;24.69;51.67;98623.38;5277975;27;20061;-78
2022/10/23 09:49:39;;;;;;;1.85;1.20;;;;;;;24.31;52.26;98626.00;5277723;27;20088;-78
2022/10/23 09:52:09;;;;;;;2.97;1.40;;;;;;;23.91;53.35;98632.16;5277871;27;20053;-78
2022/10/23 09:54:38;;;;;;;2.60;1.20;;;;;;;23.83;53.61;98624.13;5277838;27;20050;-78
2022/10/23 09:57:23;;;;;;;2.20;1.25;;;;;;;23.43;56.00;98622.28;5277480;27;20071;-77
2022/10/23 09:59:52;;;;;;;2.37;1.33;;;;;;;23.60;55.36;98628.72;5277820;27;20076;-77
2022/10/23 10:02:27;;;;;;;3.58;1.35;;;;;;;23.55;55.78;98630.91;5277891;27;20049;-77
2022/10/23 10:04:54;;;;;;;1.27;0.90;;;;;;;23.58;55.66;98622.75;5257678;27;20891;-78
2022/10/23 10:07:24;;;;;;;2.85;1.40;;;;;;;23.78;55.87;98623.66;5258369;27;20061;-78
2022/10/23 10:09:55;;;;;;;2.20;1.20;;;;;;;24.10;54.08;98623.47;5258122;27;20075;-78
2022/10/23 10:12:22;;;;;;;2.85;1.70;;;;;;;23.75;54.68;98627.41;5258606;27;20068;-78
2022/10/23 10:15:06;;;;;;;4.07;1.80;;;;;;;23.25;56.58;98627.31;5277700;27;20399;-78
2022/10/23 10:17:49;;;;;;;3.78;1.73;;;;;;;22.98;58.73;98621.78;5277540;27;20071;-78
2022/10/23 10:20:25;;;;;;;3.22;1.33;;;;;;;22.87;58.39;98614.78;5240916;27;20065;-78
2022/10/23 10:23:01;;;;;;;1.70;1.10;;;;;;;22.61;58.68;98616.94;5277845;27;20415;-78
2022/10/23 10:25:41;;;;;;;5.50;1.65;;;;;;;22.52;59.54;98623.78;5277309;27;20049;-78
2022/10/23 10:28:17;;;;;;;2.65;1.37;;;;;;;22.72;59.52;98610.78;5277916;27;20072;-78
2022/10/23 10:31:15;;;;;;;2.20;1.35;;;;;;;23.39;58.27;98607.69;5277592;27;20438;-80
2022/10/23 10:34:20;;;;;;;2.85;1.40;;;;;;;23.16;57.86;98606.22;5278057;27;20046;-81
2022/10/23 10:36:56;;;;;;;2.55;1.55;;;;;;;22.93;59.38;98602.91;5277843;27;20083;-80
2022/10/23 10:39:38;;;;;;;2.85;1.27;;;;;;;23.72;56.90;98595.25;5277287;27;20053;-81
2022/10/23 10:42:41;;;;;;;2.78;1.30;;;;;;;23.59;56.69;98588.38;5258721;27;20064;-81
2022/10/23 10:45:33;;;;;;;2.50;1.33;;;;;;;23.88;55.73;98593.75;5258291;27;20053;-81
2022/10/23 10:48:25;;;;;;;3.33;1.50;;;;;;;23.72;57.30;98585.53;5258555;27;20100;-81
2022/10/23 10:50:59;;;;;;;3.05;1.52;;;;;;;22.90;60.75;98580.31;5277581;27;20400;-81
2022/10/23 10:53:48;;;;;;;3.12;1.77;;;;;;;22.89;59.27;98586.56;5258199;27;20061;-81
2022/10/23 10:56:17;;;;;;;4.93;2.10;;;;;;;21.84;63.10;98588.16;5277495;27;20057;-81
2022/10/23 10:58:49;;;;;;;4.82;2.20;;;;;;;21.57;65.24;98588.53;5277728;27;20054;-81
2022/10/23 11:01:30;;;;;;;5.85;2.30;;;;;;;21.07;66.96;98587.25;5257967;27;20058;-81
2022/10/23 11:04:38;;;;;;;5.50;2.40;;;;;;;21.04;67.79;98588.28;5258650;27;20072;-81
2022/10/23 11:07:19;;;;;;;5.45;2.60;;;;;;;20.58;69.23;98582.25;5275786;27;20064;-81
2022/10/23 11:09:46;;;;;;;6.05;2.50;;;;;;;20.29;70.79;98579.97;5257920;27;20363;-81
2022/10/23 11:12:16;;;;;;;5.18;2.30;;;;;;;20.51;70.46;98572.22;5277529;27;20432;-81
2022/10/23 11:14:44;;;;;;;5.15;2.28;;;;;;;20.46;70.55;98571.75;5277098;27;20057;-81
2022/10/23 11:17:37;;;;;;;5.05;2.45;;;;;;;20.11;72.61;98568.25;5278072;27;20049;-81
2022/10/23 11:20:30;;;;;;;5.65;2.47;;;;;;;19.49;75.41;98563.09;5258459;27;20056;-81
2022/10/23 11:23:31;;;;;;;4.50;2.17;;;;;;;20.43;72.19;98565.91;5278522;27;20057;-81
2022/10/23 11:25:58;;;;;;;4.75;2.33;;;;;;;20.94;70.17;98568.13;5278400;27;20548;-79
2022/10/23 11:28:58;;;;;;;4.53;2.03;;;;;;;21.52;68.38;98561.84;5278121;27;20053;-79
2022/10/23 11:31:42;;;;;;;9.10;2.83;;;;;;;21.15;70.03;98568.25;5259046;27;20049;-79
2022/10/23 11:34:33;;;;;;;4.82;2.30;;;;;;;21.99;65.75;98557.16;5277962;27;20661;-79
2022/10/23 11:37:00;;;;;;;5.22;2.20;;;;;;;22.09;65.87;98560.75;5278450;27;20061;-79
2022/10/23 11:39:29;;;;;;;5.57;2.60;;;;;;;22.04;66.17;98556.81;5278214;27;20049;-79
2022/10/23 11:41:58;;;;;;;5.32;2.33;;;;;;;22.34;64.43;98554.31;5258584;27;20045;-79
2022/10/23 11:44:38;;;;;;;6.12;2.80;;;;;;;22.43;64.40;98550.91;5258894;27;20065;-79
2022/10/23 11:47:35;;;;;;;5.70;2.65;;;;;;;21.22;68.28;98554.53;5278486;27;20404;-79
2022/10/23 11:50:05;;;;;;;5.07;2.55;;;;;;;21.45;68.23;98549.31;5277787;27;20429;-79
2022/10/23 11:52:34;;;;;;;5.95;2.70;;;;;;;21.25;69.58;98545.59;5259042;27;20128;-79